Time;durP1;ratioP1;P1;durP2;ratioP2;P2;SDS_P1;SDS_P2;PMS_P1;PMS_P2;Temp;Humidity;BMP_temperature;BMP_pressure;BME280_temperature;BME280_humidity;BME280_pressure;Samples;Min_cycle;Max_cycle;Signal;HPM_P1;HPM_P2
2023/11/02 00:01:55;;;;;;;1.73;1.57;;;;;;;;;;2616330;47;20518;-76
2023/11/02 00:04:26;;;;;;;2.50;1.93;;;;;;;;;;2615161;47;20423;-73
2023/11/02 00:06:52;;;;;;;3.03;2.40;;;;;;;;;;2613486;39;20793;-74
2023/11/02 00:09:22;;;;;;;3.57;2.47;;;;;;;;;;2613450;54;20426;-73
2023/11/02 00:12:00;;;;;;;5.07;2.57;;;;;;;;;;2613558;47;20420;-75
2023/11/02 00:14:33;;;;;;;4.07;2.27;;;;;;;;;;2614161;54;20622;-74
2023/11/02 00:17:00;;;;;;;6.33;2.87;;;;;;;;;;2613550;54;20383;-74
2023/11/02 00:19:30;;;;;;;2.67;1.80;;;;;;;;;;2613650;39;20789;-74
2023/11/02 00:22:07;;;;;;;3.17;2.00;;;;;;;;;;2613920;54;20388;-74
2023/11/02 00:24:38;;;;;;;2.03;1.77;;;;;;;;;;2614130;54;20427;-74
2023/11/02 00:27:05;;;;;;;3.20;2.10;;;;;;;;;;2613328;54;20461;-73
2023/11/02 00:29:31;;;;;;;2.20;2.00;;;;;;;;;;2613880;54;21440;-74
2023/11/02 00:31:57;;;;;;;3.03;1.70;;;;;;;;;;2613332;47;20415;-74
2023/11/02 00:34:24;;;;;;;3.30;2.03;;;;;;;;;;2614108;54;20416;-74
2023/11/02 00:36:50;;;;;;;4.07;2.00;;;;;;;;;;2612736;47;20424;-74
2023/11/02 00:39:16;;;;;;;2.23;1.80;;;;;;;;;;2612811;47;20414;-74
2023/11/02 00:41:42;;;;;;;2.33;2.13;;;;;;;;;;2612742;54;20408;-74
2023/11/02 00:44:08;;;;;;;1.80;1.60;;;;;;;;;;2614464;39;20849;-74
2023/11/02 00:46:34;;;;;;;3.93;2.10;;;;;;;;;;2612375;54;20463;-73
2023/11/02 00:49:01;;;;;;;5.90;2.60;;;;;;;;;;2612610;47;20432;-74
2023/11/02 00:51:31;;;;;;;5.30;2.17;;;;;;;;;;2613339;54;21076;-74
2023/11/02 00:53:58;;;;;;;4.53;2.43;;;;;;;;;;2612745;47;20523;-75
2023/11/02 00:56:28;;;;;;;6.27;1.80;;;;;;;;;;2613101;54;20961;-74
2023/11/02 00:58:54;;;;;;;4.47;2.33;;;;;;;;;;2613533;54;20395;-74
2023/11/02 01:01:22;;;;;;;5.10;2.67;;;;;;;;;;2613343;54;20450;-74
2023/11/02 01:03:49;;;;;;;5.73;2.23;;;;;;;;;;2612829;47;20407;-73
2023/11/02 01:06:19;;;;;;;2.87;2.20;;;;;;;;;;2613905;54;20396;-75
2023/11/02 01:08:47;;;;;;;2.70;2.10;;;;;;;;;;2612868;47;20412;-74
2023/11/02 01:11:14;;;;;;;2.90;2.37;;;;;;;;;;2613335;54;20416;-73
2023/11/02 01:13:41;;;;;;;2.27;1.70;;;;;;;;;;2614053;54;20398;-74
2023/11/02 01:16:10;;;;;;;2.93;2.07;;;;;;;;;;2613550;54;20434;-72
2023/11/02 01:18:36;;;;;;;3.20;2.47;;;;;;;;;;2613380;54;20427;-73
2023/11/02 01:21:03;;;;;;;2.63;2.27;;;;;;;;;;2612487;54;20412;-74
2023/11/02 01:23:32;;;;;;;2.27;2.07;;;;;;;;;;2613900;54;20419;-74
2023/11/02 01:25:58;;;;;;;3.80;2.50;;;;;;;;;;2614168;54;20954;-75
2023/11/02 01:28:44;;;;;;;2.53;2.13;;;;;;;;;;2613612;54;20548;-74
2023/11/02 01:31:15;;;;;;;4.43;2.20;;;;;;;;;;2612969;46;20434;-74
2023/11/02 01:33:50;;;;;;;3.60;2.63;;;;;;;;;;2613377;54;20522;-74
2023/11/02 01:36:23;;;;;;;6.57;2.50;;;;;;;;;;2613502;54;20447;-73
2023/11/02 01:38:53;;;;;;;2.63;2.20;;;;;;;;;;2612401;54;20427;-74
2023/11/02 01:41:22;;;;;;;3.10;1.93;;;;;;;;;;2613081;54;20396;-73
2023/11/02 01:44:07;;;;;;;6.40;2.23;;;;;;;;;;2612915;54;20407;-74
2023/11/02 01:46:45;;;;;;;3.43;2.50;;;;;;;;;;2613452;54;20420;-74
2023/11/02 01:49:26;;;;;;;3.43;1.90;;;;;;;;;;2613370;54;20481;-75
2023/11/02 01:51:56;;;;;;;2.20;2.00;;;;;;;;;;2612785;54;20383;-74
2023/11/02 01:54:37;;;;;;;2.50;2.23;;;;;;;;;;2612866;54;20441;-73
2023/11/02 01:57:04;;;;;;;4.33;2.33;;;;;;;;;;2613480;54;20418;-74
2023/11/02 01:59:51;;;;;;;3.90;2.83;;;;;;;;;;2613154;54;20434;-74
2023/11/02 02:02:30;;;;;;;5.13;2.33;;;;;;;;;;2612293;47;20452;-74
2023/11/02 02:05:03;;;;;;;6.17;2.87;;;;;;;;;;2613154;46;20553;-74
2023/11/02 02:07:36;;;;;;;7.00;2.30;;;;;;;;;;2612263;46;20450;-74
2023/11/02 02:10:13;;;;;;;3.20;2.50;;;;;;;;;;2612495;47;20411;-74
2023/11/02 02:12:45;;;;;;;3.60;2.73;;;;;;;;;;2613415;39;20822;-74
2023/11/02 02:15:40;;;;;;;3.30;3.00;;;;;;;;;;2613499;54;20418;-75
2023/11/02 02:18:07;;;;;;;3.17;2.13;;;;;;;;;;2611722;54;20423;-75
2023/11/02 02:20:34;;;;;;;4.20;2.83;;;;;;;;;;2611531;47;20427;-76
2023/11/02 02:22:59;;;;;;;5.30;3.00;;;;;;;;;;2611965;54;20958;-75
2023/11/02 02:25:32;;;;;;;4.57;2.70;;;;;;;;;;2611978;46;20429;-75
2023/11/02 02:28:12;;;;;;;4.50;3.00;;;;;;;;;;2611876;46;20427;-75
2023/11/02 02:30:59;;;;;;;5.07;3.40;;;;;;;;;;2611831;54;20534;-75
2023/11/02 02:33:25;;;;;;;6.63;2.57;;;;;;;;;;2611611;54;20399;-75
2023/11/02 02:36:13;;;;;;;4.97;2.60;;;;;;;;;;2611696;54;20450;-76
2023/11/02 02:39:02;;;;;;;3.63;3.17;;;;;;;;;;2611840;54;20424;-76
2023/11/02 02:41:31;;;;;;;2.70;2.50;;;;;;;;;;2611350;54;21376;-76
2023/11/02 02:43:58;;;;;;;3.33;2.23;;;;;;;;;;2612167;47;20419;-75
2023/11/02 02:46:24;;;;;;;3.27;2.57;;;;;;;;;;2612280;39;20879;-75
2023/11/02 02:48:51;;;;;;;3.70;2.50;;;;;;;;;;2611787;46;20457;-75
2023/11/02 02:51:18;;;;;;;2.70;2.50;;;;;;;;;;2612426;54;20397;-75
2023/11/02 02:53:45;;;;;;;3.90;2.90;;;;;;;;;;2612545;54;20951;-74
2023/11/02 02:56:13;;;;;;;3.63;3.03;;;;;;;;;;2614535;54;20438;-76
2023/11/02 02:58:49;;;;;;;5.90;2.67;;;;;;;;;;2613779;54;20427;-74
2023/11/02 03:01:17;;;;;;;5.23;2.80;;;;;;;;;;2613813;54;20415;-74
2023/11/02 03:03:44;;;;;;;3.17;2.87;;;;;;;;;;2614854;39;20831;-76
2023/11/02 03:06:11;;;;;;;4.10;3.00;;;;;;;;;;2613064;47;20422;-75
2023/11/02 03:08:39;;;;;;;8.73;2.93;;;;;;;;;;2613966;54;20421;-75
2023/11/02 03:11:05;;;;;;;3.00;2.70;;;;;;;;;;2613449;54;20415;-75
2023/11/02 03:13:32;;;;;;;7.50;3.43;;;;;;;;;;2613904;54;20470;-76
2023/11/02 03:16:00;;;;;;;3.00;2.80;;;;;;;;;;2613933;54;20435;-76
2023/11/02 03:18:33;;;;;;;3.03;2.73;;;;;;;;;;2614359;54;20575;-75
2023/11/02 03:21:00;;;;;;;3.67;2.90;;;;;;;;;;2613040;51;20411;-75
2023/11/02 03:23:26;;;;;;;4.00;2.90;;;;;;;;;;2613024;54;20419;-75
2023/11/02 03:25:55;;;;;;;3.03;2.67;;;;;;;;;;2614285;54;20407;-73
2023/11/02 03:28:45;;;;;;;6.03;4.70;;;;;;;;;;2613513;54;20554;-73
2023/11/02 03:31:27;;;;;;;2.77;2.50;;;;;;;;;;2614062;54;20408;-74
2023/11/02 03:34:00;;;;;;;3.10;2.83;;;;;;;;;;2613891;54;20430;-75
2023/11/02 03:36:35;;;;;;;3.40;2.57;;;;;;;;;;2612552;54;20435;-72
2023/11/02 03:39:09;;;;;;;4.13;2.57;;;;;;;;;;2614592;54;20426;-75
2023/11/02 03:41:45;;;;;;;2.90;2.60;;;;;;;;;;2613901;54;20501;-73
2023/11/02 03:44:10;;;;;;;3.53;2.33;;;;;;;;;;2614137;54;20431;-73
2023/11/02 03:46:40;;;;;;;7.53;3.40;;;;;;;;;;2613971;54;20481;-74
2023/11/02 03:49:10;;;;;;;6.83;2.90;;;;;;;;;;2613014;54;20467;-73
2023/11/02 03:51:40;;;;;;;5.23;2.50;;;;;;;;;;2613179;47;20430;-73
2023/11/02 03:54:11;;;;;;;5.43;2.30;;;;;;;;;;2613779;54;21298;-75
2023/11/02 03:56:53;;;;;;;4.30;2.10;;;;;;;;;;2613551;54;20415;-74
2023/11/02 03:59:40;;;;;;;2.90;2.00;;;;;;;;;;2613135;47;20415;-75
2023/11/02 04:02:07;;;;;;;2.20;1.77;;;;;;;;;;2613107;54;20411;-75
2023/11/02 04:04:40;;;;;;;3.00;2.33;;;;;;;;;;2612981;47;20400;-73
2023/11/02 04:07:22;;;;;;;9.07;3.80;;;;;;;;;;2613738;54;20388;-73
2023/11/02 04:09:55;;;;;;;3.77;2.30;;;;;;;;;;2613588;54;20423;-74
2023/11/02 04:12:21;;;;;;;7.03;2.07;;;;;;;;;;2613400;54;20414;-73
2023/11/02 04:14:49;;;;;;;2.90;2.40;;;;;;;;;;2613466;54;20392;-75
2023/11/02 04:17:15;;;;;;;4.90;1.87;;;;;;;;;;2613918;54;20446;-74
2023/11/02 04:19:41;;;;;;;8.10;2.20;;;;;;;;;;2613588;54;20427;-74
2023/11/02 04:22:07;;;;;;;3.43;2.07;;;;;;;;;;2613005;54;20473;-73
2023/11/02 04:24:34;;;;;;;2.60;2.10;;;;;;;;;;2613617;54;20434;-71
2023/11/02 04:27:00;;;;;;;2.63;2.30;;;;;;;;;;2614086;54;20404;-74
2023/11/02 04:29:26;;;;;;;5.63;2.57;;;;;;;;;;2614097;39;20847;-74
2023/11/02 04:31:52;;;;;;;3.23;2.30;;;;;;;;;;2614169;39;20790;-74
2023/11/02 04:34:18;;;;;;;6.10;2.50;;;;;;;;;;2612718;54;20404;-72
2023/11/02 04:36:44;;;;;;;2.80;2.37;;;;;;;;;;2612677;54;20415;-73
2023/11/02 04:39:10;;;;;;;2.13;2.03;;;;;;;;;;2612931;47;20392;-74
2023/11/02 04:41:36;;;;;;;2.70;2.40;;;;;;;;;;2613022;54;21017;-73
2023/11/02 04:44:02;;;;;;;2.67;2.40;;;;;;;;;;2613034;47;20420;-74
2023/11/02 04:46:28;;;;;;;3.57;2.23;;;;;;;;;;2612697;54;20431;-74
2023/11/02 04:48:55;;;;;;;2.50;2.20;;;;;;;;;;2612427;47;20992;-74
2023/11/02 04:51:21;;;;;;;3.90;2.90;;;;;;;;;;2612997;54;20403;-75
2023/11/02 04:53:47;;;;;;;3.30;3.00;;;;;;;;;;2613092;39;20843;-73
2023/11/02 04:56:17;;;;;;;2.77;2.50;;;;;;;;;;2613433;39;20762;-75
2023/11/02 04:58:43;;;;;;;2.73;2.50;;;;;;;;;;2613488;54;20917;-73
2023/11/02 05:01:09;;;;;;;3.13;2.43;;;;;;;;;;2613401;54;20455;-73
2023/11/02 05:03:36;;;;;;;5.73;2.70;;;;;;;;;;2612938;39;20832;-73
2023/11/02 05:06:02;;;;;;;4.00;2.83;;;;;;;;;;2612613;47;20430;-75
2023/11/02 05:08:28;;;;;;;3.47;2.77;;;;;;;;;;2613216;54;20402;-74
2023/11/02 05:10:54;;;;;;;3.47;2.90;;;;;;;;;;2612079;47;20482;-74
2023/11/02 05:13:20;;;;;;;9.30;3.10;;;;;;;;;;2612164;39;21090;-73
2023/11/02 05:15:46;;;;;;;3.30;2.97;;;;;;;;;;2612937;54;20438;-73
2023/11/02 05:18:12;;;;;;;3.30;3.10;;;;;;;;;;2612744;54;20527;-74
2023/11/02 05:20:38;;;;;;;3.40;2.80;;;;;;;;;;2612889;54;20407;-73
2023/11/02 05:23:05;;;;;;;3.17;2.97;;;;;;;;;;2612502;54;20411;-74
2023/11/02 05:25:31;;;;;;;8.30;3.80;;;;;;;;;;2613146;39;20629;-75
2023/11/02 05:27:59;;;;;;;3.10;2.90;;;;;;;;;;2613239;54;20984;-73
2023/11/02 05:30:25;;;;;;;4.63;4.23;;;;;;;;;;2612370;54;20443;-73
2023/11/02 05:32:51;;;;;;;4.23;2.83;;;;;;;;;;2613870;31;20816;-74
2023/11/02 05:35:17;;;;;;;3.50;3.17;;;;;;;;;;2613469;54;20398;-75
2023/11/02 05:37:44;;;;;;;3.70;3.40;;;;;;;;;;2612333;47;21064;-74
2023/11/02 05:40:10;;;;;;;4.73;3.33;;;;;;;;;;2612325;47;20411;-74
2023/11/02 05:42:37;;;;;;;4.00;3.03;;;;;;;;;;2613640;54;20419;-74
2023/11/02 05:45:04;;;;;;;4.43;2.90;;;;;;;;;;2613366;54;20617;-74
2023/11/02 05:47:30;;;;;;;3.40;3.10;;;;;;;;;;2613889;46;20424;-76
2023/11/02 05:49:56;;;;;;;20.87;4.43;;;;;;;;;;2613213;54;20412;-75
2023/11/02 05:52:22;;;;;;;3.73;2.80;;;;;;;;;;2611856;47;20487;-80
2023/11/02 05:54:48;;;;;;;2.90;2.70;;;;;;;;;;2613077;54;20422;-75
2023/11/02 05:57:14;;;;;;;2.87;2.20;;;;;;;;;;2613674;54;20478;-76
2023/11/02 05:59:40;;;;;;;2.47;2.27;;;;;;;;;;2613692;54;20472;-78
2023/11/02 06:02:08;;;;;;;2.60;2.40;;;;;;;;;;2615325;54;20435;-75
2023/11/02 06:04:34;;;;;;;4.07;2.87;;;;;;;;;;2613861;54;20572;-76
2023/11/02 06:07:00;;;;;;;3.30;3.00;;;;;;;;;;2612912;47;20441;-75
2023/11/02 06:09:27;;;;;;;3.63;2.53;;;;;;;;;;2613424;54;20420;-76
2023/11/02 06:11:53;;;;;;;3.00;2.70;;;;;;;;;;2613840;39;20824;-75
2023/11/02 06:14:23;;;;;;;5.60;3.07;;;;;;;;;;2614267;54;20431;-76
2023/11/02 06:16:51;;;;;;;6.73;2.80;;;;;;;;;;2609500;47;20420;-76
2023/11/02 06:19:18;;;;;;;3.57;3.27;;;;;;;;;;2613655;54;20427;-76
2023/11/02 06:21:44;;;;;;;3.00;2.80;;;;;;;;;;2611617;54;20534;-75
2023/11/02 06:24:10;;;;;;;5.90;2.90;;;;;;;;;;2610251;54;20434;-75
2023/11/02 06:26:37;;;;;;;3.20;3.00;;;;;;;;;;2611079;54;21331;-75
2023/11/02 06:29:30;;;;;;;3.03;2.83;;;;;;;;;;2611475;54;20820;-76
2023/11/02 06:31:56;;;;;;;3.07;2.87;;;;;;;;;;2611360;54;20957;-75
2023/11/02 06:34:22;;;;;;;7.67;3.47;;;;;;;;;;2611571;39;20942;-75
2023/11/02 06:36:49;;;;;;;2.90;2.70;;;;;;;;;;2610813;47;20438;-74
2023/11/02 06:39:20;;;;;;;3.27;3.07;;;;;;;;;;2609789;54;20407;-75
2023/11/02 06:41:47;;;;;;;2.90;2.70;;;;;;;;;;2611524;49;20460;-76
2023/11/02 06:44:13;;;;;;;6.80;2.90;;;;;;;;;;2612047;54;21048;-75
2023/11/02 06:46:39;;;;;;;4.43;3.30;;;;;;;;;;2610869;54;20455;-74
2023/11/02 06:49:05;;;;;;;5.53;3.30;;;;;;;;;;2611084;54;20453;-75
2023/11/02 06:51:32;;;;;;;3.73;2.60;;;;;;;;;;2611591;54;20454;-77
2023/11/02 06:53:58;;;;;;;3.40;2.60;;;;;;;;;;2611797;39;21003;-76
2023/11/02 06:56:26;;;;;;;3.40;2.77;;;;;;;;;;2611661;54;20543;-75
2023/11/02 06:58:53;;;;;;;3.53;3.00;;;;;;;;;;2610487;47;20954;-74
2023/11/02 07:01:19;;;;;;;2.80;2.60;;;;;;;;;;2610125;54;20458;-72
2023/11/02 07:03:46;;;;;;;2.80;2.60;;;;;;;;;;2609156;54;20530;-72
2023/11/02 07:06:12;;;;;;;3.27;3.07;;;;;;;;;;2610355;47;20407;-75
2023/11/02 07:08:38;;;;;;;5.90;3.23;;;;;;;;;;2611231;54;20407;-73
2023/11/02 07:11:05;;;;;;;3.07;2.87;;;;;;;;;;2610504;47;20465;-73
2023/11/02 07:13:31;;;;;;;6.90;3.20;;;;;;;;;;2611852;54;20423;-72
2023/11/02 07:15:58;;;;;;;4.00;2.97;;;;;;;;;;2611754;54;20440;-72
2023/11/02 07:18:24;;;;;;;4.03;3.00;;;;;;;;;;2611066;39;20801;-73
2023/11/02 07:20:51;;;;;;;3.77;2.70;;;;;;;;;;2611009;54;20985;-73
2023/11/02 07:23:17;;;;;;;3.10;2.80;;;;;;;;;;2610537;54;20423;-73
2023/11/02 07:25:44;;;;;;;4.53;2.30;;;;;;;;;;2609697;54;20438;-74
2023/11/02 07:28:10;;;;;;;2.70;2.50;;;;;;;;;;2611613;54;20431;-72
2023/11/02 07:30:36;;;;;;;2.47;2.23;;;;;;;;;;2610691;47;20423;-73
2023/11/02 07:33:03;;;;;;;2.60;1.90;;;;;;;;;;2610944;50;21351;-73
2023/11/02 07:35:29;;;;;;;5.23;1.50;;;;;;;;;;2611308;54;20489;-74
2023/11/02 07:37:56;;;;;;;2.50;1.17;;;;;;;;;;2611843;54;20407;-75
2023/11/02 07:40:22;;;;;;;1.93;1.10;;;;;;;;;;2612366;54;20403;-76
2023/11/02 07:42:48;;;;;;;1.83;1.10;;;;;;;;;;2612569;54;21047;-73
2023/11/02 07:45:14;;;;;;;2.37;1.10;;;;;;;;;;2610485;54;20454;-73
2023/11/02 07:47:41;;;;;;;1.70;0.90;;;;;;;;;;2612888;54;20498;-70
2023/11/02 07:50:07;;;;;;;1.50;1.10;;;;;;;;;;2611822;54;20439;-73
2023/11/02 07:52:33;;;;;;;2.90;1.90;;;;;;;;;;2611669;47;20442;-74
2023/11/02 07:54:59;;;;;;;1.70;1.00;;;;;;;;;;2611101;54;20473;-75
2023/11/02 07:57:25;;;;;;;2.70;1.53;;;;;;;;;;2611237;54;20447;-73
2023/11/02 07:59:52;;;;;;;3.23;1.27;;;;;;;;;;2611918;54;20396;-73
2023/11/02 08:02:18;;;;;;;1.53;1.10;;;;;;;;;;2611545;54;21005;-73
2023/11/02 08:04:44;;;;;;;1.93;1.20;;;;;;;;;;2611135;47;21029;-73
2023/11/02 08:07:10;;;;;;;1.90;0.97;;;;;;;;;;2612144;54;21426;-76
2023/11/02 08:09:37;;;;;;;2.57;1.97;;;;;;;;;;2612032;54;20422;-75
2023/11/02 08:12:04;;;;;;;1.90;1.07;;;;;;;;;;2612580;39;20826;-75
2023/11/02 08:14:30;;;;;;;3.27;1.50;;;;;;;;;;2611692;54;20416;-75
2023/11/02 08:16:56;;;;;;;1.33;1.00;;;;;;;;;;2611730;54;20518;-74
2023/11/02 08:19:22;;;;;;;1.97;1.10;;;;;;;;;;2610184;47;20445;-76
2023/11/02 08:21:48;;;;;;;1.80;1.40;;;;;;;;;;2612086;54;20958;-75
2023/11/02 08:24:14;;;;;;;2.67;1.70;;;;;;;;;;2612304;39;20792;-76
2023/11/02 08:26:42;;;;;;;2.47;1.33;;;;;;;;;;2611567;54;20395;-73
2023/11/02 08:29:09;;;;;;;1.63;1.17;;;;;;;;;;2611641;54;20424;-72
2023/11/02 08:31:36;;;;;;;2.27;1.60;;;;;;;;;;2611675;54;20412;-73
2023/11/02 08:34:03;;;;;;;1.80;1.50;;;;;;;;;;2611706;54;20407;-73
2023/11/02 08:36:31;;;;;;;1.90;1.60;;;;;;;;;;2611460;54;20434;-72
2023/11/02 08:38:57;;;;;;;3.30;1.50;;;;;;;;;;2611530;39;21287;-74
2023/11/02 08:41:25;;;;;;;6.00;1.70;;;;;;;;;;2611987;54;20427;-76
2023/11/02 08:43:51;;;;;;;2.10;1.90;;;;;;;;;;2612270;54;20407;-74
2023/11/02 08:46:18;;;;;;;3.00;1.57;;;;;;;;;;2612576;39;20950;-73
2023/11/02 08:48:45;;;;;;;2.30;1.73;;;;;;;;;;2611296;47;20434;-73
2023/11/02 08:51:11;;;;;;;2.43;1.90;;;;;;;;;;2611976;46;20433;-73
2023/11/02 08:53:39;;;;;;;2.47;1.73;;;;;;;;;;2611716;54;20454;-74
2023/11/02 08:56:09;;;;;;;2.27;1.50;;;;;;;;;;2610904;54;20428;-73
2023/11/02 08:58:40;;;;;;;2.27;1.63;;;;;;;;;;2611480;54;20449;-74
2023/11/02 09:01:06;;;;;;;2.00;1.90;;;;;;;;;;2612718;54;20507;-73
2023/11/02 09:03:32;;;;;;;4.83;1.80;;;;;;;;;;2611897;54;20412;-74
2023/11/02 09:05:58;;;;;;;3.13;1.50;;;;;;;;;;2612307;46;20436;-74
2023/11/02 09:08:24;;;;;;;1.83;1.40;;;;;;;;;;2611545;47;20435;-72
2023/11/02 09:10:50;;;;;;;1.93;1.83;;;;;;;;;;2612159;54;20395;-72
2023/11/02 09:13:16;;;;;;;2.10;1.80;;;;;;;;;;2612100;54;20930;-73
2023/11/02 09:15:42;;;;;;;3.60;1.87;;;;;;;;;;2612545;39;21016;-74
2023/11/02 09:18:08;;;;;;;2.00;1.90;;;;;;;;;;2612944;54;20424;-73
2023/11/02 09:20:34;;;;;;;5.00;2.07;;;;;;;;;;2610902;54;20416;-73
2023/11/02 09:23:01;;;;;;;6.67;1.87;;;;;;;;;;2611795;47;20416;-74
2023/11/02 09:25:27;;;;;;;2.77;2.57;;;;;;;;;;2610711;47;20427;-74
2023/11/02 09:27:53;;;;;;;3.60;2.30;;;;;;;;;;2611893;54;20419;-74
2023/11/02 09:30:19;;;;;;;2.57;1.90;;;;;;;;;;2612039;54;20523;-76
2023/11/02 09:32:46;;;;;;;2.83;2.03;;;;;;;;;;2611301;54;20411;-72
2023/11/02 09:35:13;;;;;;;3.70;2.40;;;;;;;;;;2612577;54;21060;-74
2023/11/02 09:37:39;;;;;;;2.70;2.47;;;;;;;;;;2613269;54;20424;-76
2023/11/02 09:40:06;;;;;;;2.63;2.40;;;;;;;;;;2613911;54;20415;-75
2023/11/02 09:42:32;;;;;;;2.87;2.00;;;;;;;;;;2614585;54;21021;-75
2023/11/02 09:44:59;;;;;;;3.80;2.20;;;;;;;;;;2613949;47;20447;-76
2023/11/02 09:47:25;;;;;;;2.43;2.07;;;;;;;;;;2613688;54;20515;-75
2023/11/02 09:49:51;;;;;;;4.80;1.90;;;;;;;;;;2613886;54;20968;-75
2023/11/02 09:52:19;;;;;;;3.10;2.37;;;;;;;;;;2613383;54;20430;-75
2023/11/02 09:54:46;;;;;;;3.00;2.10;;;;;;;;;;2613728;54;20436;-76
2023/11/02 09:57:13;;;;;;;3.20;2.33;;;;;;;;;;2614110;54;20426;-76
2023/11/02 09:59:44;;;;;;;5.70;2.67;;;;;;;;;;2613105;54;20418;-75
2023/11/02 10:02:11;;;;;;;3.13;2.20;;;;;;;;;;2614386;54;20400;-75
2023/11/02 10:04:44;;;;;;;3.20;2.10;;;;;;;;;;2612775;54;20419;-76
2023/11/02 10:07:12;;;;;;;3.70;2.53;;;;;;;;;;2613480;46;20454;-76
2023/11/02 10:09:39;;;;;;;4.37;3.20;;;;;;;;;;2614091;54;20415;-76
2023/11/02 10:12:05;;;;;;;2.30;2.10;;;;;;;;;;2612479;54;20431;-75
2023/11/02 10:14:33;;;;;;;3.60;2.60;;;;;;;;;;2612688;54;20422;-76
2023/11/02 10:17:06;;;;;;;5.13;2.70;;;;;;;;;;2612841;46;20403;-75
2023/11/02 10:19:32;;;;;;;3.30;2.43;;;;;;;;;;2612642;51;21794;-75
2023/11/02 10:22:00;;;;;;;3.90;3.57;;;;;;;;;;2613564;54;20412;-74
2023/11/02 10:24:30;;;;;;;2.67;2.47;;;;;;;;;;2614137;54;20911;-75
2023/11/02 10:26:57;;;;;;;4.20;3.10;;;;;;;;;;2613572;54;20539;-73
2023/11/02 10:29:24;;;;;;;3.03;2.73;;;;;;;;;;2610323;54;20407;-74
2023/11/02 10:31:54;;;;;;;2.90;2.70;;;;;;;;;;2611047;54;20415;-73
2023/11/02 10:34:24;;;;;;;4.10;2.90;;;;;;;;;;2611603;54;20447;-75
2023/11/02 10:36:51;;;;;;;3.23;3.03;;;;;;;;;;2612002;54;20515;-74
2023/11/02 10:39:20;;;;;;;2.70;2.50;;;;;;;;;;2611259;54;20400;-74
2023/11/02 10:41:57;;;;;;;3.10;2.90;;;;;;;;;;2611892;54;20523;-73
2023/11/02 10:44:33;;;;;;;3.03;2.83;;;;;;;;;;2610534;54;20527;-73
2023/11/02 10:47:01;;;;;;;3.47;3.03;;;;;;;;;;2611758;54;20451;-74
2023/11/02 10:49:29;;;;;;;3.33;3.07;;;;;;;;;;2614857;54;20427;-76
2023/11/02 10:51:57;;;;;;;3.80;3.47;;;;;;;;;;2614850;54;20427;-75
2023/11/02 10:54:33;;;;;;;4.17;3.37;;;;;;;;;;2614512;54;20416;-75
2023/11/02 10:57:10;;;;;;;3.63;3.33;;;;;;;;;;2614519;54;20419;-75
2023/11/02 10:59:37;;;;;;;3.90;3.40;;;;;;;;;;2613977;47;20445;-74
2023/11/02 11:02:04;;;;;;;3.03;2.83;;;;;;;;;;2613063;47;20414;-75
2023/11/02 11:04:33;;;;;;;3.43;3.13;;;;;;;;;;2613905;54;20562;-74
2023/11/02 11:07:00;;;;;;;4.30;4.00;;;;;;;;;;2614397;54;20450;-75
2023/11/02 11:09:28;;;;;;;8.47;3.87;;;;;;;;;;2613540;54;20407;-75
2023/11/02 11:11:55;;;;;;;3.73;3.30;;;;;;;;;;2614753;54;21467;-75
2023/11/02 11:14:24;;;;;;;4.27;3.70;;;;;;;;;;2613604;54;20446;-74
2023/11/02 11:16:55;;;;;;;4.17;3.80;;;;;;;;;;2613842;54;20427;-75
2023/11/02 11:19:22;;;;;;;5.63;4.50;;;;;;;;;;2614340;39;20903;-76
2023/11/02 11:21:51;;;;;;;5.57;3.90;;;;;;;;;;2614239;54;20481;-75
2023/11/02 11:24:21;;;;;;;7.23;3.97;;;;;;;;;;2613585;47;20438;-74
2023/11/02 11:26:48;;;;;;;5.33;4.93;;;;;;;;;;2613699;47;20417;-75
2023/11/02 11:29:35;;;;;;;4.90;4.47;;;;;;;;;;2614207;54;20504;-75
2023/11/02 11:32:01;;;;;;;6.47;4.50;;;;;;;;;;2615105;54;20486;-77
2023/11/02 11:34:51;;;;;;;4.77;4.23;;;;;;;;;;2615161;39;20846;-76
2023/11/02 11:37:37;;;;;;;5.70;5.30;;;;;;;;;;2613175;47;20455;-74
2023/11/02 11:40:08;;;;;;;6.40;4.97;;;;;;;;;;2611765;46;20446;-75
2023/11/02 11:42:54;;;;;;;4.83;4.43;;;;;;;;;;2612570;47;20431;-75
2023/11/02 11:45:30;;;;;;;5.40;4.87;;;;;;;;;;2612686;54;20443;-74
2023/11/02 11:47:56;;;;;;;5.67;5.33;;;;;;;;;;2611963;54;20428;-75
2023/11/02 11:50:33;;;;;;;6.03;5.20;;;;;;;;;;2611832;54;20412;-75
2023/11/02 11:53:10;;;;;;;6.73;6.10;;;;;;;;;;2609628;54;20409;-76
2023/11/02 11:55:36;;;;;;;5.73;5.43;;;;;;;;;;2610857;54;20423;-75
2023/11/02 11:58:03;;;;;;;6.33;5.90;;;;;;;;;;2611323;54;20500;-75
2023/11/02 12:00:29;;;;;;;6.40;6.00;;;;;;;;;;2610198;54;20400;-75
2023/11/02 12:02:57;;;;;;;7.03;6.53;;;;;;;;;;2607492;47;20508;-75
2023/11/02 12:05:41;;;;;;;6.17;5.67;;;;;;;;;;2610268;54;20407;-74
2023/11/02 12:08:07;;;;;;;8.60;6.20;;;;;;;;;;2609539;54;20419;-75
2023/11/02 12:10:43;;;;;;;6.53;6.00;;;;;;;;;;2609921;54;20433;-74
2023/11/02 12:13:10;;;;;;;7.27;6.03;;;;;;;;;;2610272;39;22061;-76
2023/11/02 12:15:50;;;;;;;6.03;5.63;;;;;;;;;;2610584;39;21281;-75
2023/11/02 12:18:18;;;;;;;8.23;6.57;;;;;;;;;;2612100;54;20391;-75
2023/11/02 12:20:45;;;;;;;6.40;5.70;;;;;;;;;;2608169;51;20454;-75
2023/11/02 12:23:13;;;;;;;8.20;5.50;;;;;;;;;;2609505;54;20400;-74
2023/11/02 12:25:40;;;;;;;6.10;5.60;;;;;;;;;;2609766;39;20800;-75
2023/11/02 12:28:12;;;;;;;5.70;5.40;;;;;;;;;;2611494;54;21103;-75
2023/11/02 12:30:45;;;;;;;7.20;6.47;;;;;;;;;;2608390;54;21433;-75
2023/11/02 12:33:11;;;;;;;8.03;5.30;;;;;;;;;;2611880;54;20518;-75
2023/11/02 12:35:37;;;;;;;9.90;7.27;;;;;;;;;;2609649;54;20510;-75
2023/11/02 12:38:07;;;;;;;6.20;5.63;;;;;;;;;;2609518;54;20543;-76
2023/11/02 12:40:52;;;;;;;7.17;6.17;;;;;;;;;;2609918;47;20453;-75
2023/11/02 12:43:22;;;;;;;9.27;6.43;;;;;;;;;;2611371;47;20428;-75
2023/11/02 12:45:54;;;;;;;6.30;5.80;;;;;;;;;;2609201;54;20459;-74
2023/11/02 12:48:32;;;;;;;12.10;6.50;;;;;;;;;;2607636;54;20416;-75
2023/11/02 12:50:59;;;;;;;6.77;6.27;;;;;;;;;;2610305;54;20411;-75
2023/11/02 12:53:33;;;;;;;8.70;6.67;;;;;;;;;;2611286;54;20425;-74
2023/11/02 12:56:00;;;;;;;7.33;6.80;;;;;;;;;;2610178;47;20422;-75
2023/11/02 12:58:27;;;;;;;6.43;5.83;;;;;;;;;;2612090;54;20416;-75
2023/11/02 13:00:59;;;;;;;9.90;6.53;;;;;;;;;;2609145;51;21045;-75
2023/11/02 13:03:26;;;;;;;6.20;5.77;;;;;;;;;;2610682;54;20428;-74
2023/11/02 13:05:52;;;;;;;6.50;6.10;;;;;;;;;;2609412;54;20445;-75
2023/11/02 13:08:19;;;;;;;5.50;5.10;;;;;;;;;;2611471;54;20515;-75
2023/11/02 13:10:45;;;;;;;7.03;6.43;;;;;;;;;;2609992;47;20510;-76
2023/11/02 13:13:12;;;;;;;6.40;5.90;;;;;;;;;;2610995;54;20423;-75
2023/11/02 13:15:38;;;;;;;10.13;6.10;;;;;;;;;;2609233;47;20419;-76
2023/11/02 13:18:05;;;;;;;11.00;6.13;;;;;;;;;;2610882;54;20404;-75
2023/11/02 13:20:35;;;;;;;7.77;7.10;;;;;;;;;;2609719;50;20475;-75
2023/11/02 13:23:01;;;;;;;6.80;6.40;;;;;;;;;;2611369;54;20411;-74
2023/11/02 13:25:28;;;;;;;7.47;6.90;;;;;;;;;;2610557;47;20435;-74
2023/11/02 13:27:59;;;;;;;7.47;6.70;;;;;;;;;;2611152;54;20407;-75
2023/11/02 13:30:26;;;;;;;7.23;6.73;;;;;;;;;;2609774;46;20435;-75
2023/11/02 13:32:54;;;;;;;7.30;6.80;;;;;;;;;;2610100;54;20450;-75
2023/11/02 13:35:24;;;;;;;10.83;7.40;;;;;;;;;;2609564;47;20427;-76
2023/11/02 13:37:50;;;;;;;7.40;7.10;;;;;;;;;;2609566;47;21325;-74
2023/11/02 13:40:20;;;;;;;7.90;7.13;;;;;;;;;;2611858;31;20963;-76
2023/11/02 13:42:48;;;;;;;7.97;7.20;;;;;;;;;;2612026;54;20416;-76
2023/11/02 13:45:14;;;;;;;7.93;7.33;;;;;;;;;;2610029;39;20857;-76
2023/11/02 13:47:40;;;;;;;7.50;6.80;;;;;;;;;;2611161;39;20841;-76
2023/11/02 13:50:07;;;;;;;7.80;7.10;;;;;;;;;;2611771;46;20515;-74
2023/11/02 13:52:35;;;;;;;7.57;6.97;;;;;;;;;;2611137;54;21049;-76
2023/11/02 13:55:01;;;;;;;7.80;7.10;;;;;;;;;;2610193;54;20538;-74
2023/11/02 13:57:27;;;;;;;7.57;7.00;;;;;;;;;;2609306;47;20439;-75
2023/11/02 13:59:53;;;;;;;7.90;7.30;;;;;;;;;;2610566;54;20408;-76
2023/11/02 14:02:20;;;;;;;8.40;7.70;;;;;;;;;;2610281;54;20396;-76
2023/11/02 14:04:47;;;;;;;8.30;7.50;;;;;;;;;;2611718;54;20431;-76
2023/11/02 14:07:16;;;;;;;7.90;7.40;;;;;;;;;;2611627;54;20408;-76
2023/11/02 14:09:43;;;;;;;9.17;8.57;;;;;;;;;;2611654;48;20450;-74
2023/11/02 14:12:10;;;;;;;7.80;7.27;;;;;;;;;;2611244;54;20515;-74
2023/11/02 14:14:36;;;;;;;11.80;8.10;;;;;;;;;;2611010;54;20420;-76
2023/11/02 14:17:04;;;;;;;7.30;6.90;;;;;;;;;;2610853;54;20396;-74
2023/11/02 14:19:30;;;;;;;13.33;8.00;;;;;;;;;;2611995;39;20799;-77
2023/11/02 14:21:57;;;;;;;7.67;7.20;;;;;;;;;;2612231;39;20522;-77
2023/11/02 14:24:24;;;;;;;11.77;7.93;;;;;;;;;;2611803;47;20442;-77
2023/11/02 14:26:50;;;;;;;7.23;6.93;;;;;;;;;;2611855;54;20454;-77
2023/11/02 14:29:17;;;;;;;9.40;7.13;;;;;;;;;;2611985;54;20503;-77
2023/11/02 14:31:43;;;;;;;8.30;7.80;;;;;;;;;;2611931;39;20881;-77
2023/11/02 14:34:09;;;;;;;9.27;7.13;;;;;;;;;;2611984;54;20408;-77
2023/11/02 14:36:36;;;;;;;9.77;7.83;;;;;;;;;;2611458;47;20462;-76
2023/11/02 14:39:03;;;;;;;7.27;6.77;;;;;;;;;;2611537;47;20431;-76
2023/11/02 14:41:29;;;;;;;7.80;7.10;;;;;;;;;;2609670;54;21276;-76
2023/11/02 14:43:58;;;;;;;7.13;6.77;;;;;;;;;;2611273;47;20443;-77
2023/11/02 14:46:24;;;;;;;7.37;6.97;;;;;;;;;;2612426;39;20840;-77
2023/11/02 14:48:50;;;;;;;10.17;8.47;;;;;;;;;;2612179;54;21307;-77
2023/11/02 14:51:16;;;;;;;9.13;7.67;;;;;;;;;;2612957;54;20586;-77
2023/11/02 14:53:43;;;;;;;10.17;7.00;;;;;;;;;;2612883;54;21201;-78